createdAt,value
2022-09-20T00:01:33.280Z,1.73
2022-09-20T00:04:00.822Z,1.55
2022-09-20T00:06:28.440Z,1.30
2022-09-20T00:08:55.166Z,2.63
2022-09-20T00:11:22.657Z,1.38
2022-09-20T00:13:50.649Z,1.20
2022-09-20T00:16:24.317Z,2.22
2022-09-20T00:18:52.214Z,1.48
2022-09-20T00:21:20.289Z,1.92
2022-09-20T00:23:46.574Z,1.52
2022-09-20T00:26:13.918Z,1.83
2022-09-20T00:28:40.607Z,1.75
2022-09-20T00:31:08.050Z,1.60
2022-09-20T00:33:53.204Z,2.28
2022-09-20T00:36:19.481Z,1.27
2022-09-20T00:38:45.978Z,1.80
2022-09-20T00:41:12.236Z,1.48
2022-09-20T00:43:40.984Z,2.38
2022-09-20T00:46:15.862Z,3.75
2022-09-20T00:48:43.156Z,1.63
2022-09-20T00:51:12.355Z,2.35
2022-09-20T00:53:45.095Z,1.98
2022-09-20T00:56:16.225Z,3.10
2022-09-20T00:58:55.405Z,2.28
2022-09-20T01:01:21.847Z,2.22
2022-09-20T01:03:48.930Z,2.75
2022-09-20T01:06:16.748Z,2.60
2022-09-20T01:08:45.658Z,2.15
2022-09-20T01:11:12.528Z,4.28
2022-09-20T01:13:38.853Z,2.75
2022-09-20T01:16:05.711Z,3.47
2022-09-20T01:18:33.198Z,2.92
2022-09-20T01:21:01.084Z,3.28
2022-09-20T01:23:27.390Z,2.83
2022-09-20T01:26:12.598Z,2.65
2022-09-20T01:28:42.107Z,2.35
2022-09-20T01:31:28.762Z,2.85
2022-09-20T01:34:03.847Z,3.35
2022-09-20T01:36:45.222Z,3.97
2022-09-20T01:39:13.861Z,4.07
2022-09-20T01:41:51.080Z,4.78
2022-09-20T01:44:17.705Z,5.03
2022-09-20T01:46:45.737Z,6.00
2022-09-20T01:49:18.471Z,4.78
2022-09-20T01:51:44.713Z,7.32
2022-09-20T01:54:29.702Z,5.35
2022-09-20T01:57:02.130Z,5.70
2022-09-20T01:59:48.634Z,5.07
2022-09-20T02:02:14.946Z,4.57
2022-09-20T02:04:41.206Z,3.75
2022-09-20T02:07:16.598Z,3.65
2022-09-20T02:09:56.739Z,5.28
2022-09-20T02:12:55.555Z,4.38
2022-09-20T02:15:53.248Z,2.58
2022-09-20T02:18:45.655Z,2.38
2022-09-20T02:21:11.942Z,1.83
2022-09-20T02:23:38.356Z,2.75
2022-09-20T02:26:11.057Z,1.83
2022-09-20T02:28:52.277Z,1.45
2022-09-20T02:31:21.636Z,2.47
2022-09-20T02:33:55.764Z,2.70
2022-09-20T02:36:30.114Z,2.00
2022-09-20T02:39:02.123Z,2.03
2022-09-20T02:41:48.308Z,2.50
2022-09-20T02:44:33.329Z,3.63
2022-09-20T02:47:18.029Z,1.95
2022-09-20T02:49:55.476Z,3.00
2022-09-20T02:52:32.522Z,1.80
2022-09-20T02:55:17.894Z,2.08
2022-09-20T02:57:52.619Z,4.05
2022-09-20T03:00:23.871Z,4.05
2022-09-20T03:02:55.710Z,2.35
2022-09-20T03:05:24.209Z,3.00
2022-09-20T03:08:03.096Z,3.00
2022-09-20T03:10:39.022Z,3.55
2022-09-20T03:13:18.766Z,2.72
2022-09-20T03:15:57.416Z,3.47
2022-09-20T03:18:32.965Z,3.63
2022-09-20T03:21:09.798Z,5.25
2022-09-20T03:23:42.154Z,2.95
2022-09-20T03:26:19.506Z,3.42
2022-09-20T03:28:51.907Z,4.65
2022-09-20T03:31:24.266Z,4.07
2022-09-20T03:34:13.548Z,3.65
2022-09-20T03:36:51.690Z,4.18
2022-09-20T03:39:36.841Z,3.60
2022-09-20T03:42:12.386Z,4.00
2022-09-20T03:44:58.606Z,4.07
2022-09-20T03:47:50.146Z,3.90
2022-09-20T03:50:22.980Z,3.53
2022-09-20T03:53:07.919Z,4.15
2022-09-20T03:55:53.475Z,5.40
2022-09-20T03:58:31.534Z,4.95
2022-09-20T04:01:16.627Z,5.45
2022-09-20T04:04:02.013Z,4.47
2022-09-20T04:06:39.450Z,5.13
2022-09-20T04:09:24.463Z,3.95
2022-09-20T04:11:55.052Z,3.80
2022-09-20T04:14:40.277Z,4.13
2022-09-20T04:17:18.734Z,3.40
2022-09-20T04:19:53.771Z,3.58
2022-09-20T04:22:21.993Z,3.65
2022-09-20T04:24:53.052Z,3.90
2022-09-20T04:27:31.667Z,4.10
2022-09-20T04:29:57.901Z,4.88
2022-09-20T04:32:26.704Z,3.88
2022-09-20T04:35:14.683Z,3.63
2022-09-20T04:37:43.597Z,4.50
2022-09-20T04:40:30.247Z,4.13
2022-09-20T04:42:59.587Z,3.55
2022-09-20T04:45:27.198Z,2.65
2022-09-20T04:48:12.470Z,3.15
2022-09-20T04:51:02.688Z,3.30
2022-09-20T04:53:38.169Z,3.70
2022-09-20T04:56:18.972Z,2.88
2022-09-20T04:58:51.403Z,3.28
2022-09-20T05:01:23.979Z,3.42
2022-09-20T05:04:08.823Z,3.63
2022-09-20T05:06:38.728Z,2.95
2022-09-20T05:09:40.600Z,3.08
2022-09-20T05:12:17.170Z,3.05
2022-09-20T05:14:52.132Z,3.10
2022-09-20T05:17:25.733Z,3.80
2022-09-20T05:20:10.866Z,3.72
2022-09-20T05:22:37.093Z,3.70
2022-09-20T05:25:07.128Z,3.67
2022-09-20T05:27:42.635Z,4.38
2022-09-20T05:30:38.450Z,3.78
2022-09-20T05:33:23.738Z,4.22
2022-09-20T05:35:58.976Z,3.70
2022-09-20T05:41:07.111Z,4.18
2022-09-20T05:43:35.149Z,3.70
2022-09-20T05:46:16.275Z,3.50
2022-09-20T05:48:54.435Z,4.30
2022-09-20T05:51:30.396Z,3.45
2022-09-20T05:53:56.624Z,4.38
2022-09-20T05:56:41.489Z,3.75
2022-09-20T05:59:14.112Z,3.80
2022-09-20T06:01:41.962Z,2.92
2022-09-20T06:04:14.558Z,3.75
2022-09-20T06:06:59.725Z,3.72
2022-09-20T06:09:35.128Z,4.88
2022-09-20T06:12:01.675Z,3.38
2022-09-20T06:14:27.893Z,3.83
2022-09-20T06:16:54.165Z,4.18
2022-09-20T06:19:26.499Z,3.42
2022-09-20T06:21:54.521Z,3.58
2022-09-20T06:24:41.031Z,3.67
2022-09-20T06:27:28.482Z,3.35
2022-09-20T06:30:00.142Z,3.67
2022-09-20T06:32:26.869Z,3.50
2022-09-20T06:34:53.902Z,3.70
2022-09-20T06:37:39.156Z,2.88
2022-09-20T06:40:27.025Z,3.05
2022-09-20T06:42:54.441Z,3.85
2022-09-20T06:45:20.687Z,2.85
2022-09-20T06:47:46.948Z,3.72
2022-09-20T06:50:15.840Z,2.60
2022-09-20T06:52:42.586Z,2.33
2022-09-20T06:55:11.811Z,2.72
2022-09-20T06:57:38.117Z,3.13
2022-09-20T07:00:10.790Z,3.47
2022-09-20T07:02:37.147Z,3.75
2022-09-20T07:05:03.517Z,3.33
2022-09-20T07:07:29.794Z,2.63
2022-09-20T07:09:56.056Z,1.88
2022-09-20T07:12:22.312Z,1.90
2022-09-20T07:14:50.519Z,1.98
2022-09-20T07:17:16.771Z,2.33
2022-09-20T07:19:43.036Z,2.00
2022-09-20T07:22:09.418Z,2.70
2022-09-20T07:24:36.387Z,2.78
2022-09-20T07:27:04.344Z,2.40
2022-09-20T07:29:31.488Z,2.45
2022-09-20T07:31:58.644Z,3.35
2022-09-20T07:34:25.597Z,3.53
2022-09-20T07:36:52.248Z,3.28
2022-09-20T07:39:18.681Z,2.22
2022-09-20T07:41:48.359Z,2.72
2022-09-20T07:44:21.348Z,5.15
2022-09-20T07:46:51.758Z,3.53
2022-09-20T07:49:18.082Z,2.92
2022-09-20T07:51:44.660Z,3.75
2022-09-20T07:54:10.964Z,2.85
2022-09-20T07:56:37.762Z,2.72
2022-09-20T07:59:04.108Z,2.20
2022-09-20T08:01:30.459Z,3.45
2022-09-20T08:03:57.370Z,2.17
2022-09-20T08:06:23.857Z,2.95
2022-09-20T08:08:51.565Z,2.28
2022-09-20T08:11:27.940Z,1.88
2022-09-20T08:14:10.518Z,3.15
2022-09-20T08:16:38.553Z,2.50
2022-09-20T08:19:04.999Z,2.22
2022-09-20T08:21:32.635Z,2.00
2022-09-20T08:23:59.559Z,2.08
2022-09-20T08:26:26.354Z,2.03
2022-09-20T08:28:53.748Z,1.70
2022-09-20T08:31:20.904Z,2.58
2022-09-20T08:33:48.142Z,2.92
2022-09-20T08:36:15.700Z,2.20
2022-09-20T08:41:31.103Z,3.20
2022-09-20T08:43:57.300Z,3.10
2022-09-20T08:46:28.748Z,3.10
2022-09-20T08:48:55.811Z,2.90
2022-09-20T08:51:23.377Z,3.50
2022-09-20T08:53:50.741Z,3.25
2022-09-20T08:56:17.373Z,4.80
2022-09-20T08:58:44.591Z,3.42
2022-09-20T09:01:17.241Z,3.10
2022-09-20T09:03:43.533Z,3.55
2022-09-20T09:06:18.386Z,3.72
2022-09-20T09:08:46.145Z,3.83
2022-09-20T09:11:13.604Z,4.07
2022-09-20T09:13:54.105Z,3.58
2022-09-20T09:16:27.299Z,3.00
2022-09-20T09:18:57.719Z,5.38
2022-09-20T09:21:30.202Z,3.80
2022-09-20T09:24:02.555Z,3.15
2022-09-20T09:26:35.081Z,2.95
2022-09-20T09:29:16.162Z,5.60
2022-09-20T09:31:45.024Z,3.22
2022-09-20T09:34:25.040Z,3.40
2022-09-20T09:36:51.416Z,2.72
2022-09-20T09:39:25.448Z,2.80
2022-09-20T09:41:52.212Z,3.65
2022-09-20T09:44:20.211Z,3.15
2022-09-20T09:46:46.505Z,2.80
2022-09-20T09:49:15.468Z,2.25
2022-09-20T09:51:43.135Z,2.70
2022-09-20T09:54:16.938Z,2.72
2022-09-20T09:57:01.930Z,4.22
2022-09-20T09:59:47.604Z,2.67
2022-09-20T10:02:41.010Z,3.75
2022-09-20T10:05:16.294Z,3.03
2022-09-20T10:07:55.031Z,1.92
2022-09-20T10:10:27.942Z,1.83
2022-09-20T10:13:00.407Z,3.08
2022-09-20T10:15:41.208Z,1.48
2022-09-20T10:18:19.596Z,1.15
2022-09-20T10:20:53.037Z,1.17
2022-09-20T10:24:02.096Z,1.30
2022-09-20T10:26:41.049Z,2.70
2022-09-20T10:29:15.601Z,1.70
2022-09-20T10:31:56.160Z,1.95
2022-09-20T10:34:25.297Z,1.33
2022-09-20T10:36:55.686Z,1.40
2022-09-20T10:39:27.586Z,1.55
2022-09-20T10:42:24.306Z,1.23
2022-09-20T10:45:09.187Z,1.17
2022-09-20T10:47:50.545Z,1.48
2022-09-20T10:50:19.945Z,1.17
2022-09-20T10:53:05.044Z,1.27
2022-09-20T10:55:34.611Z,2.75
2022-09-20T10:58:06.761Z,1.48
2022-09-20T11:00:46.719Z,1.02
2022-09-20T11:05:45.284Z,1.42
2022-09-20T11:08:22.917Z,0.60
2022-09-20T11:10:51.497Z,0.45
2022-09-20T11:13:26.673Z,0.50
2022-09-20T11:16:00.259Z,0.60
2022-09-20T11:18:32.781Z,0.93
2022-09-20T11:21:08.223Z,1.00
2022-09-20T11:23:57.341Z,1.65
2022-09-20T11:26:23.570Z,0.93
2022-09-20T11:28:52.247Z,1.45
2022-09-20T11:31:19.142Z,1.10
2022-09-20T11:33:53.191Z,1.17
2022-09-20T11:36:23.174Z,0.47
2022-09-20T11:39:18.861Z,0.70
2022-09-20T11:41:45.568Z,0.10
2022-09-20T11:44:14.774Z,0.13
2022-09-20T11:46:52.547Z,0.30
2022-09-20T11:49:30.220Z,0.40
2022-09-20T11:52:03.354Z,0.20
2022-09-20T11:54:33.189Z,0.25
2022-09-20T11:57:00.598Z,0.30
2022-09-20T11:59:29.374Z,0.32
2022-09-20T12:01:59.402Z,0.37
2022-09-20T12:04:32.708Z,0.25
2022-09-20T12:07:19.613Z,0.25
2022-09-20T12:10:00.474Z,0.17
2022-09-20T12:12:32.928Z,0.43
2022-09-20T12:15:00.572Z,0.08
2022-09-20T12:17:45.385Z,0.38
2022-09-20T12:20:30.850Z,0.20
2022-09-20T12:23:15.789Z,0.25
2022-09-20T12:26:00.413Z,0.32
2022-09-20T12:28:36.511Z,0.00
2022-09-20T12:31:21.277Z,0.55
2022-09-20T12:34:06.301Z,1.30
2022-09-20T12:36:36.491Z,0.45
2022-09-20T12:39:20.679Z,0.10
2022-09-20T12:41:54.105Z,0.77
2022-09-20T12:44:32.239Z,0.30
2022-09-20T12:46:58.470Z,0.15
2022-09-20T12:49:54.096Z,0.20
2022-09-20T12:52:40.914Z,0.25
2022-09-20T12:55:10.929Z,0.10
2022-09-20T12:57:37.986Z,0.30
2022-09-20T13:00:05.534Z,0.00
2022-09-20T13:02:41.683Z,0.30
2022-09-20T13:05:26.637Z,0.45
2022-09-20T13:07:59.204Z,0.20
2022-09-20T13:10:34.465Z,0.40
2022-09-20T13:13:03.102Z,0.13
2022-09-20T13:15:29.516Z,0.15
2022-09-20T13:17:59.091Z,0.00
2022-09-20T13:22:55.958Z,0.30
2022-09-20T13:25:24.814Z,0.20
2022-09-20T13:27:51.080Z,0.10
2022-09-20T13:30:18.960Z,0.05
2022-09-20T13:32:45.499Z,0.28
2022-09-20T13:35:25.145Z,0.17
2022-09-20T13:38:02.332Z,0.00
2022-09-20T13:40:33.929Z,0.00
2022-09-20T13:43:22.195Z,0.17
2022-09-20T13:45:50.925Z,0.20
2022-09-20T13:48:17.297Z,0.00
2022-09-20T13:50:48.059Z,0.00
2022-09-20T13:53:39.336Z,0.03
2022-09-20T13:56:09.622Z,0.00
2022-09-20T13:58:37.174Z,0.47
2022-09-20T14:01:08.090Z,0.00
2022-09-20T14:03:35.273Z,0.00
2022-09-20T14:06:08.666Z,0.00
2022-09-20T14:08:37.676Z,0.00
2022-09-20T14:11:08.252Z,0.00
2022-09-20T14:13:39.962Z,0.57
2022-09-20T14:16:07.023Z,0.20
2022-09-20T14:18:34.548Z,0.20
2022-09-20T14:21:01.311Z,0.00
2022-09-20T14:23:28.993Z,0.60
2022-09-20T14:26:07.166Z,0.00
2022-09-20T14:28:33.435Z,0.00
2022-09-20T14:31:12.936Z,0.00
2022-09-20T14:33:54.969Z,0.00
2022-09-20T14:36:23.107Z,0.08
2022-09-20T14:38:52.156Z,0.00
2022-09-20T14:41:28.778Z,0.75
2022-09-20T14:43:56.267Z,0.00
2022-09-20T14:46:28.509Z,0.10
2022-09-20T14:48:55.467Z,0.10
2022-09-20T14:51:23.099Z,0.00
2022-09-20T14:53:51.173Z,0.00
2022-09-20T14:56:26.753Z,0.17
2022-09-20T14:59:11.266Z,0.00
2022-09-20T15:01:38.947Z,0.08
2022-09-20T15:04:09.725Z,0.00
2022-09-20T15:06:37.658Z,0.20
2022-09-20T15:09:03.944Z,0.10
2022-09-20T15:11:30.418Z,0.00
2022-09-20T15:13:56.691Z,0.10
2022-09-20T15:16:22.990Z,0.00
2022-09-20T15:18:49.698Z,0.22
2022-09-20T15:21:16.090Z,0.10
2022-09-20T15:23:42.436Z,0.00
2022-09-20T15:26:10.578Z,0.05
2022-09-20T15:28:37.042Z,0.57
2022-09-20T15:31:03.342Z,0.00
2022-09-20T15:33:30.565Z,0.10
2022-09-20T15:35:56.824Z,0.10
2022-09-20T15:38:26.679Z,0.15
2022-09-20T15:40:53.301Z,0.10
2022-09-20T15:43:23.788Z,0.03
2022-09-20T15:45:57.816Z,0.10
2022-09-20T15:48:25.228Z,0.10
2022-09-20T15:50:58.490Z,0.35
2022-09-20T15:53:25.090Z,0.20
2022-09-20T15:55:51.333Z,0.10
2022-09-20T15:58:17.669Z,0.10
2022-09-20T16:00:45.781Z,0.45
2022-09-20T16:03:12.501Z,0.22
2022-09-20T16:05:38.938Z,0.03
2022-09-20T16:08:05.224Z,0.20
2022-09-20T16:10:32.598Z,0.40
2022-09-20T16:12:58.857Z,0.10
2022-09-20T16:15:25.118Z,0.43
2022-09-20T16:18:09.919Z,0.45
2022-09-20T16:20:36.157Z,0.28
2022-09-20T16:23:02.409Z,0.10
2022-09-20T16:25:28.672Z,0.10
2022-09-20T16:27:54.927Z,0.05
2022-09-20T16:30:21.197Z,0.20
2022-09-20T16:32:47.485Z,0.98
2022-09-20T16:35:13.780Z,0.30
2022-09-20T16:37:40.050Z,0.10
2022-09-20T16:40:11.211Z,0.30
2022-09-20T16:42:38.053Z,0.35
2022-09-20T16:45:04.502Z,0.35
2022-09-20T16:47:30.901Z,0.30
2022-09-20T16:49:58.139Z,0.20
2022-09-20T16:52:25.061Z,0.38
2022-09-20T16:54:51.344Z,0.25
2022-09-20T16:57:17.880Z,0.10
2022-09-20T16:59:44.451Z,0.22
2022-09-20T17:02:12.001Z,0.10
2022-09-20T17:04:38.556Z,0.50
2022-09-20T17:07:05.299Z,0.50
2022-09-20T17:09:31.891Z,0.55
2022-09-20T17:11:58.124Z,1.15
2022-09-20T17:14:25.732Z,0.20
2022-09-20T17:16:52.025Z,0.20
2022-09-20T17:19:19.627Z,0.60
2022-09-20T17:21:49.266Z,0.40
2022-09-20T17:24:17.050Z,0.40
2022-09-20T17:26:47.225Z,0.45
2022-09-20T17:31:41.652Z,1.30
2022-09-20T17:34:09.665Z,0.60
2022-09-20T17:36:39.118Z,0.40
2022-09-20T17:39:06.565Z,0.40
2022-09-20T17:41:33.841Z,0.70
2022-09-20T17:44:02.495Z,0.63
2022-09-20T17:46:31.527Z,0.70
2022-09-20T17:49:02.327Z,0.80
2022-09-20T17:51:29.897Z,1.67
2022-09-20T17:53:56.324Z,0.43
2022-09-20T17:56:28.518Z,0.40
2022-09-20T17:58:58.763Z,0.95
2022-09-20T18:01:26.192Z,0.95
2022-09-20T18:03:53.077Z,0.75
2022-09-20T18:06:20.589Z,0.73
2022-09-20T18:09:01.250Z,0.47
2022-09-20T18:11:29.424Z,0.30
2022-09-20T18:13:55.740Z,0.57
2022-09-20T18:16:22.127Z,0.60
2022-09-20T18:18:49.620Z,0.70
2022-09-20T18:21:17.549Z,0.93
2022-09-20T18:23:44.204Z,0.70
2022-09-20T18:26:23.818Z,0.60
2022-09-20T18:28:53.104Z,1.08
2022-09-20T18:31:19.385Z,0.77
2022-09-20T18:33:45.789Z,1.00
2022-09-20T18:36:12.022Z,0.90
2022-09-20T18:38:38.814Z,0.98
2022-09-20T18:41:05.193Z,0.85
2022-09-20T18:43:35.442Z,1.05
2022-09-20T18:48:33.350Z,1.13
2022-09-20T18:51:00.550Z,1.50
2022-09-20T18:53:27.685Z,1.42
2022-09-20T18:55:54.320Z,4.15
2022-09-20T18:58:21.484Z,2.17
2022-09-20T19:00:50.571Z,1.95
2022-09-20T19:03:19.504Z,1.52
2022-09-20T19:05:51.562Z,1.67
2022-09-20T19:08:20.832Z,1.55
2022-09-20T19:11:07.298Z,3.22
2022-09-20T19:13:34.381Z,2.00
2022-09-20T19:16:00.642Z,2.10
2022-09-20T19:18:51.780Z,2.10
2022-09-20T19:21:36.483Z,2.70
2022-09-20T19:24:21.778Z,2.90
2022-09-20T19:26:48.563Z,3.45
2022-09-20T19:29:20.060Z,4.03
2022-09-20T19:31:50.302Z,3.80
2022-09-20T19:34:19.021Z,3.70
2022-09-20T19:36:57.866Z,3.83
2022-09-20T19:39:34.228Z,2.92
2022-09-20T19:42:09.411Z,3.40
2022-09-20T19:44:39.919Z,4.30
2022-09-20T19:47:06.225Z,5.50
2022-09-20T19:49:51.221Z,4.40
2022-09-20T19:52:17.632Z,3.75
2022-09-20T19:54:46.770Z,4.43
2022-09-20T19:57:18.073Z,3.53
2022-09-20T19:59:44.378Z,6.05
2022-09-20T20:02:11.612Z,5.45
2022-09-20T20:04:38.092Z,5.05
2022-09-20T20:07:08.258Z,3.97
2022-09-20T20:09:52.647Z,5.28
2022-09-20T20:12:35.743Z,5.18
2022-09-20T20:15:05.179Z,6.03
2022-09-20T20:17:31.398Z,4.20
2022-09-20T20:20:16.551Z,4.40
2022-09-20T20:23:07.365Z,3.25
2022-09-20T20:25:42.536Z,4.00
2022-09-20T20:28:09.078Z,3.60
2022-09-20T20:30:35.368Z,3.05
2022-09-20T20:33:04.457Z,2.92
2022-09-20T20:35:30.758Z,2.90
2022-09-20T20:37:57.018Z,3.08
2022-09-20T20:40:23.334Z,3.28
2022-09-20T20:42:54.986Z,2.97
2022-09-20T20:45:21.441Z,2.45
2022-09-20T20:47:48.880Z,2.85
2022-09-20T20:50:15.179Z,3.65
2022-09-20T20:52:41.705Z,3.42
2022-09-20T20:55:08.205Z,3.50
2022-09-20T20:57:35.392Z,4.13
2022-09-20T21:00:02.205Z,4.10
2022-09-20T21:02:28.533Z,3.42
2022-09-20T21:04:54.910Z,3.30
2022-09-20T21:07:21.727Z,3.92
2022-09-20T21:09:47.987Z,4.30
2022-09-20T21:12:14.575Z,4.93
2022-09-20T21:14:40.994Z,4.40
2022-09-20T21:17:07.718Z,4.38
2022-09-20T21:19:33.974Z,5.13
2022-09-20T21:22:00.213Z,3.88
2022-09-20T21:24:26.487Z,4.53
2022-09-20T21:26:53.481Z,4.50
2022-09-20T21:29:20.312Z,3.88
2022-09-20T21:31:46.835Z,3.38
2022-09-20T21:34:15.240Z,3.40
2022-09-20T21:36:42.005Z,3.80
2022-09-20T21:39:08.435Z,3.45
2022-09-20T21:41:36.116Z,3.10
2022-09-20T21:44:03.486Z,3.25
2022-09-20T21:46:30.874Z,4.05
2022-09-20T21:48:59.413Z,3.80
2022-09-20T21:51:26.575Z,3.83
2022-09-20T21:53:57.358Z,3.75
2022-09-20T21:56:24.910Z,3.85
2022-09-20T21:58:51.162Z,3.78
2022-09-20T22:01:25.156Z,3.90
2022-09-20T22:03:58.907Z,3.65
2022-09-20T22:06:26.272Z,4.72
2022-09-20T22:08:53.792Z,3.53
2022-09-20T22:11:21.237Z,3.97
2022-09-20T22:13:51.472Z,3.92
2022-09-20T22:16:20.433Z,3.38
2022-09-20T22:18:47.125Z,3.80
2022-09-20T22:21:17.680Z,4.50
2022-09-20T22:23:44.084Z,4.43
2022-09-20T22:26:14.696Z,4.43
2022-09-20T22:28:41.528Z,4.18
2022-09-20T22:31:15.020Z,4.65
2022-09-20T22:33:42.348Z,4.13
2022-09-20T22:36:09.077Z,4.63
2022-09-20T22:38:35.436Z,4.05
2022-09-20T22:41:01.848Z,4.30
2022-09-20T22:43:28.394Z,4.45
2022-09-20T22:45:54.702Z,4.82
2022-09-20T22:48:21.072Z,4.57
2022-09-20T22:50:47.354Z,4.30
2022-09-20T22:53:13.669Z,4.55
2022-09-20T22:55:39.945Z,5.60
2022-09-20T22:58:06.214Z,5.38
2022-09-20T23:00:32.486Z,4.47
2022-09-20T23:02:58.901Z,5.28
2022-09-20T23:05:25.789Z,4.90
2022-09-20T23:07:52.030Z,4.82
2022-09-20T23:10:18.283Z,6.43
2022-09-20T23:12:44.534Z,5.28
2022-09-20T23:15:11.653Z,5.85
2022-09-20T23:17:40.685Z,5.70
2022-09-20T23:20:07.228Z,5.40
2022-09-20T23:22:33.470Z,6.82
2022-09-20T23:24:59.727Z,6.25
2022-09-20T23:27:25.972Z,6.00
2022-09-20T23:29:52.217Z,4.88
2022-09-20T23:32:18.445Z,5.07
2022-09-20T23:34:44.741Z,5.70
2022-09-20T23:37:11.043Z,5.35
2022-09-20T23:39:37.283Z,5.53
2022-09-20T23:42:03.730Z,4.90
2022-09-20T23:44:30.118Z,5.85
2022-09-20T23:46:56.401Z,5.18
2022-09-20T23:49:22.648Z,4.60
2022-09-20T23:51:48.886Z,5.10
2022-09-20T23:54:15.153Z,4.68
2022-09-20T23:56:42.707Z,5.40
2022-09-20T23:59:08.974Z,4.85
